Terminal Aerodrome Forecast
Issued by NWS Northern Indiana

Home | Current Version | Previous Version | Graphics & Text | Print | Product List | Glossary Off
Versions: 1 2 3 4 5 6 7 8 9 10 11 12 13 14 15 16 17 18 19

957
FTUS43 KIWX 051121
TAFFWA
TAF
KFWA 051121Z 0512/0612 01011KT P6SM SCT007 OVC010
      TEMPO 0512/0514 OVC007
     FM051500 01014G24KT P6SM SCT015 BKN050
     FM060100 31004KT P6SM SCT050=

USA.gov is the U.S. government's official web portal to all federal, state and local government web resources and services.